Time;durP1;ratioP1;P1;durP2;ratioP2;P2;SDS_P1;SDS_P2;PMS_P1;PMS_P2;Temp;Humidity;BMP_temperature;BMP_pressure;BME280_temperature;BME280_humidity;BME280_pressure;Samples;Min_cycle;Max_cycle;Signal;HPM_P1;HPM_P2
2024/04/13 00:00:38;;;;;;;;;;;;;;;;;;109667;1250;59044;-82
2024/04/13 00:03:26;;;;;;;;;;;;;;;;;;109674;1251;64038;-81
2024/04/13 00:05:52;;;;;;;;;;;;;;;;;;109678;1250;58954;-80
2024/04/13 00:08:18;;;;;;;;;;;;;;;;;;109659;1251;58950;-79
2024/04/13 00:10:44;;;;;;;;;;;;;;;;;;109665;1250;58921;-79
2024/04/13 00:13:10;;;;;;;;;;;;;;;;;;109660;1250;59046;-79
2024/04/13 00:15:37;;;;;;;;;;;;;;;;;;109665;1250;58939;-79
2024/04/13 00:18:07;;;;;;;;;;;;;;;;;;109646;1250;58867;-79
2024/04/13 00:20:33;;;;;;;;;;;;;;;;;;109585;1251;59759;-79
2024/04/13 00:22:59;;;;;;;;;;;;;;;;;;109461;1250;59244;-79
2024/04/13 00:25:26;;;;;;;;;;;;;;;;;;109358;1252;59618;-79
2024/04/13 00:27:52;;;;;;;;;;;;;;;;;;109329;1252;59357;-80
2024/04/13 00:30:18;;;;;;;;;;;;;;;;;;109294;1251;59626;-80
2024/04/13 00:32:45;;;;;;;;;;;;;;;;;;109342;1251;59079;-79
2024/04/13 00:35:11;;;;;;;;;;;;;;;;;;109340;1252;58996;-80
2024/04/13 00:37:37;;;;;;;;;;;;;;;;;;109366;1252;59018;-80
2024/04/13 00:40:05;;;;;;;;;;;;;;;;;;109380;1253;59073;-79
2024/04/13 00:42:31;;;;;;;;;;;;;;;;;;109275;1253;59073;-79
2024/04/13 00:45:04;;;;;;;;;;;;;;;;;;109324;1251;59244;-79
2024/04/13 00:47:30;;;;;;;;;;;;;;;;;;109315;1252;59032;-80
2024/04/13 00:49:56;;;;;;;;;;;;;;;;;;109291;1252;59294;-79
2024/04/13 00:52:23;;;;;;;;;;;;;;;;;;109397;1252;59229;-80
2024/04/13 00:54:49;;;;;;;;;;;;;;;;;;109323;1253;59282;-79
2024/04/13 00:57:16;;;;;;;;;;;;;;;;;;109440;1250;59060;-81
2024/04/13 00:59:42;;;;;;;;;;;;;;;;;;109446;1250;59270;-80
2024/04/13 01:02:08;;;;;;;;;;;;;;;;;;109534;1251;59602;-80
2024/04/13 01:04:36;;;;;;;;;;;;;;;;;;109508;1251;59767;-80
2024/04/13 01:07:03;;;;;;;;;;;;;;;;;;109454;1251;59692;-79
2024/04/13 01:09:29;;;;;;;;;;;;;;;;;;109484;1251;59266;-79
2024/04/13 01:11:55;;;;;;;;;;;;;;;;;;109469;1250;59268;-80
2024/04/13 01:14:22;;;;;;;;;;;;;;;;;;109499;1251;59592;-80
2024/04/13 01:16:48;;;;;;;;;;;;;;;;;;109486;1251;59399;-80
2024/04/13 01:19:15;;;;;;;;;;;;;;;;;;109495;1251;59573;-80
2024/04/13 01:21:43;;;;;;;;;;;;;;;;;;109497;1254;59713;-79
2024/04/13 01:24:09;;;;;;;;;;;;;;;;;;109430;1252;59420;-80
2024/04/13 01:26:38;;;;;;;;;;;;;;;;;;109331;1255;58889;-80
2024/04/13 01:29:04;;;;;;;;;;;;;;;;;;109375;1253;61412;-81
2024/04/13 01:31:30;;;;;;;;;;;;;;;;;;109325;1253;58928;-79
2024/04/13 01:33:56;;;;;;;;;;;;;;;;;;109358;1252;59645;-80
2024/04/13 01:36:23;;;;;;;;;;;;;;;;;;109304;1252;59109;-79
2024/04/13 01:38:50;;;;;;;;;;;;;;;;;;109206;1251;59121;-79
2024/04/13 01:41:16;;;;;;;;;;;;;;;;;;109262;1253;59463;-80
2024/04/13 01:43:42;;;;;;;;;;;;;;;;;;109261;1251;59720;-80
2024/04/13 01:46:09;;;;;;;;;;;;;;;;;;109297;1252;59592;-79
2024/04/13 01:48:35;;;;;;;;;;;;;;;;;;109300;1252;59163;-80
2024/04/13 01:51:04;;;;;;;;;;;;;;;;;;109335;1253;59721;-81
2024/04/13 01:53:30;;;;;;;;;;;;;;;;;;109290;1252;62513;-79
2024/04/13 01:55:56;;;;;;;;;;;;;;;;;;109307;1251;59281;-80
2024/04/13 01:58:23;;;;;;;;;;;;;;;;;;109533;1250;59502;-80
2024/04/13 02:00:49;;;;;;;;;;;;;;;;;;109353;1251;59629;-80
2024/04/13 02:03:15;;;;;;;;;;;;;;;;;;109389;1250;59072;-80
2024/04/13 02:05:41;;;;;;;;;;;;;;;;;;109417;1250;59045;-79
2024/04/13 02:08:07;;;;;;;;;;;;;;;;;;109467;1250;59810;-81
2024/04/13 02:10:33;;;;;;;;;;;;;;;;;;109403;1251;59030;-80
2024/04/13 02:13:00;;;;;;;;;;;;;;;;;;109446;1250;59643;-80
2024/04/13 02:15:26;;;;;;;;;;;;;;;;;;109468;1250;58954;-81
2024/04/13 02:17:52;;;;;;;;;;;;;;;;;;109471;1251;59631;-80
2024/04/13 02:20:18;;;;;;;;;;;;;;;;;;109459;1251;59059;-80
2024/04/13 02:22:44;;;;;;;;;;;;;;;;;;109507;1250;59101;-79
2024/04/13 02:25:14;;;;;;;;;;;;;;;;;;109319;1253;59671;-79
2024/04/13 02:27:40;;;;;;;;;;;;;;;;;;109296;1252;61634;-79
2024/04/13 02:30:07;;;;;;;;;;;;;;;;;;109278;1255;58989;-79
2024/04/13 02:32:34;;;;;;;;;;;;;;;;;;109225;1252;59080;-80
2024/04/13 02:35:00;;;;;;;;;;;;;;;;;;109267;1253;59596;-80
2024/04/13 02:37:26;;;;;;;;;;;;;;;;;;109312;1256;59113;-79
2024/04/13 02:39:52;;;;;;;;;;;;;;;;;;109334;1252;59545;-80
2024/04/13 02:42:18;;;;;;;;;;;;;;;;;;109364;1253;59057;-79
2024/04/13 02:44:45;;;;;;;;;;;;;;;;;;109443;1251;59339;-79
2024/04/13 02:47:11;;;;;;;;;;;;;;;;;;109435;1253;59078;-79
2024/04/13 02:49:37;;;;;;;;;;;;;;;;;;109366;1251;59028;-79
2024/04/13 02:52:03;;;;;;;;;;;;;;;;;;109296;1255;59692;-80
2024/04/13 02:54:29;;;;;;;;;;;;;;;;;;109357;1253;59005;-79
2024/04/13 02:56:55;;;;;;;;;;;;;;;;;;109465;1251;59066;-79
2024/04/13 02:59:21;;;;;;;;;;;;;;;;;;109483;1251;59452;-81
2024/04/13 03:01:48;;;;;;;;;;;;;;;;;;109527;1250;59709;-80
2024/04/13 03:04:14;;;;;;;;;;;;;;;;;;109516;1251;59091;-80
2024/04/13 03:06:40;;;;;;;;;;;;;;;;;;109375;1251;59180;-79
2024/04/13 03:09:07;;;;;;;;;;;;;;;;;;109467;1251;59246;-80
2024/04/13 03:11:34;;;;;;;;;;;;;;;;;;109459;1250;59270;-81
2024/04/13 03:14:00;;;;;;;;;;;;;;;;;;109434;1251;62870;-80
2024/04/13 03:16:27;;;;;;;;;;;;;;;;;;109506;1251;59508;-80
2024/04/13 03:18:53;;;;;;;;;;;;;;;;;;109601;1251;59657;-80
2024/04/13 03:21:19;;;;;;;;;;;;;;;;;;109445;1251;59733;-79
2024/04/13 03:23:45;;;;;;;;;;;;;;;;;;109417;1252;59734;-80
2024/04/13 03:26:12;;;;;;;;;;;;;;;;;;109310;1253;59279;-80
2024/04/13 03:28:38;;;;;;;;;;;;;;;;;;109302;1253;59682;-79
2024/04/13 03:31:04;;;;;;;;;;;;;;;;;;109316;1252;59415;-81
2024/04/13 03:33:30;;;;;;;;;;;;;;;;;;109326;1251;59077;-80
2024/04/13 03:35:56;;;;;;;;;;;;;;;;;;109369;1252;59393;-80
2024/04/13 03:38:23;;;;;;;;;;;;;;;;;;109354;1252;59740;-79
2024/04/13 03:40:49;;;;;;;;;;;;;;;;;;109371;1252;59072;-79
2024/04/13 03:43:15;;;;;;;;;;;;;;;;;;109475;1252;58997;-79
2024/04/13 03:45:41;;;;;;;;;;;;;;;;;;109544;1253;58972;-81
2024/04/13 03:48:07;;;;;;;;;;;;;;;;;;109531;1252;62840;-79
2024/04/13 03:50:33;;;;;;;;;;;;;;;;;;109532;1253;59094;-80
2024/04/13 03:53:00;;;;;;;;;;;;;;;;;;109456;1253;58907;-79
2024/04/13 03:55:26;;;;;;;;;;;;;;;;;;109527;1253;58826;-79
2024/04/13 03:57:52;;;;;;;;;;;;;;;;;;109691;1251;59092;-81
2024/04/13 04:00:18;;;;;;;;;;;;;;;;;;109601;1251;59215;-79
2024/04/13 04:02:44;;;;;;;;;;;;;;;;;;109680;1250;59031;-79
2024/04/13 04:05:10;;;;;;;;;;;;;;;;;;109619;1250;59029;-79
2024/04/13 04:07:37;;;;;;;;;;;;;;;;;;109476;1250;59590;-81
2024/04/13 04:10:05;;;;;;;;;;;;;;;;;;109476;1254;59182;-79
2024/04/13 04:12:31;;;;;;;;;;;;;;;;;;109513;1251;59866;-79
2024/04/13 04:14:57;;;;;;;;;;;;;;;;;;109507;1251;59089;-78
2024/04/13 04:17:23;;;;;;;;;;;;;;;;;;109456;1250;59524;-80
2024/04/13 04:19:50;;;;;;;;;;;;;;;;;;109446;1250;60209;-79
2024/04/13 04:22:16;;;;;;;;;;;;;;;;;;109513;1250;59691;-80
2024/04/13 04:24:42;;;;;;;;;;;;;;;;;;109278;1256;59022;-79
2024/04/13 04:27:09;;;;;;;;;;;;;;;;;;109319;1251;59619;-79
2024/04/13 04:29:35;;;;;;;;;;;;;;;;;;109481;1253;59079;-80
2024/04/13 04:32:01;;;;;;;;;;;;;;;;;;109372;1251;58996;-79
2024/04/13 04:34:27;;;;;;;;;;;;;;;;;;109282;1253;59753;-79
2024/04/13 04:36:54;;;;;;;;;;;;;;;;;;109265;1253;59567;-79
2024/04/13 04:39:20;;;;;;;;;;;;;;;;;;109284;1253;59625;-81
2024/04/13 04:41:47;;;;;;;;;;;;;;;;;;109228;1251;59656;-79
2024/04/13 04:44:13;;;;;;;;;;;;;;;;;;109288;1253;59217;-79
2024/04/13 04:46:39;;;;;;;;;;;;;;;;;;109329;1253;59623;-79
2024/04/13 04:49:05;;;;;;;;;;;;;;;;;;109289;1253;58996;-80
2024/04/13 04:51:32;;;;;;;;;;;;;;;;;;109259;1252;59473;-80
2024/04/13 04:53:58;;;;;;;;;;;;;;;;;;109283;1255;59411;-79
2024/04/13 04:56:24;;;;;;;;;;;;;;;;;;109430;1251;59205;-79
2024/04/13 04:58:51;;;;;;;;;;;;;;;;;;109492;1251;59047;-80
2024/04/13 05:01:17;;;;;;;;;;;;;;;;;;109491;1250;58996;-78
2024/04/13 05:03:43;;;;;;;;;;;;;;;;;;109484;1251;59019;-80
2024/04/13 05:06:09;;;;;;;;;;;;;;;;;;109402;1250;59303;-80
2024/04/13 05:08:36;;;;;;;;;;;;;;;;;;109501;1251;59696;-80
2024/04/13 05:11:02;;;;;;;;;;;;;;;;;;109476;1251;59551;-79
2024/04/13 05:13:31;;;;;;;;;;;;;;;;;;109469;1251;59675;-80
2024/04/13 05:15:57;;;;;;;;;;;;;;;;;;109490;1251;59647;-80
2024/04/13 05:18:23;;;;;;;;;;;;;;;;;;109497;1251;59686;-79
2024/04/13 05:20:49;;;;;;;;;;;;;;;;;;109505;1251;59092;-81
2024/04/13 05:23:16;;;;;;;;;;;;;;;;;;109437;1250;59653;-79
2024/04/13 05:25:42;;;;;;;;;;;;;;;;;;109287;1253;59349;-79
2024/04/13 05:28:09;;;;;;;;;;;;;;;;;;109213;1256;59117;-81
2024/04/13 05:30:35;;;;;;;;;;;;;;;;;;109456;1253;59084;-81
2024/04/13 05:33:02;;;;;;;;;;;;;;;;;;109455;1253;58856;-79
2024/04/13 05:35:29;;;;;;;;;;;;;;;;;;109259;1253;59584;-79
2024/04/13 05:37:55;;;;;;;;;;;;;;;;;;109347;1252;59174;-80
2024/04/13 05:40:24;;;;;;;;;;;;;;;;;;109327;1253;59590;-80
2024/04/13 05:42:51;;;;;;;;;;;;;;;;;;109335;1252;59060;-79
2024/04/13 05:45:17;;;;;;;;;;;;;;;;;;109381;1253;59002;-81
2024/04/13 05:47:43;;;;;;;;;;;;;;;;;;109484;1253;59161;-81
2024/04/13 05:50:10;;;;;;;;;;;;;;;;;;109502;1253;58842;-79
2024/04/13 05:52:36;;;;;;;;;;;;;;;;;;109493;1253;58850;-80
2024/04/13 05:55:02;;;;;;;;;;;;;;;;;;109259;1253;59095;-82
2024/04/13 05:57:29;;;;;;;;;;;;;;;;;;109407;1251;59677;-79
2024/04/13 05:59:55;;;;;;;;;;;;;;;;;;109470;1251;58998;-79
2024/04/13 06:02:26;;;;;;;;;;;;;;;;;;109387;1251;59521;-81
2024/04/13 06:04:52;;;;;;;;;;;;;;;;;;109691;1251;60475;-79
2024/04/13 06:07:19;;;;;;;;;;;;;;;;;;109661;1250;58951;-80
2024/04/13 06:09:45;;;;;;;;;;;;;;;;;;109584;1251;59100;-79
2024/04/13 06:12:11;;;;;;;;;;;;;;;;;;109511;1251;222275;-79
2024/04/13 06:14:39;;;;;;;;;;;;;;;;;;109534;1251;59090;-80
2024/04/13 06:17:05;;;;;;;;;;;;;;;;;;109700;1251;60900;-82
2024/04/13 06:19:31;;;;;;;;;;;;;;;;;;109571;1251;59679;-81
2024/04/13 06:21:58;;;;;;;;;;;;;;;;;;109506;1251;59614;-81
2024/04/13 06:24:25;;;;;;;;;;;;;;;;;;109250;1251;59311;-79
2024/04/13 06:26:51;;;;;;;;;;;;;;;;;;109286;1253;59334;-81
2024/04/13 06:29:17;;;;;;;;;;;;;;;;;;109256;1255;59617;-80
2024/04/13 06:31:43;;;;;;;;;;;;;;;;;;109321;1253;59104;-80
2024/04/13 06:34:10;;;;;;;;;;;;;;;;;;109319;1252;59441;-81
2024/04/13 06:36:37;;;;;;;;;;;;;;;;;;109214;1256;59371;-82
2024/04/13 06:39:04;;;;;;;;;;;;;;;;;;109296;1253;59114;-81
2024/04/13 06:41:31;;;;;;;;;;;;;;;;;;109322;1251;59268;-80
2024/04/13 06:43:59;;;;;;;;;;;;;;;;;;109314;1252;58978;-81
2024/04/13 06:46:25;;;;;;;;;;;;;;;;;;109200;1253;59527;-79
2024/04/13 06:48:51;;;;;;;;;;;;;;;;;;109293;1253;59526;-80
2024/04/13 06:51:18;;;;;;;;;;;;;;;;;;109265;1253;59705;-80
2024/04/13 06:53:44;;;;;;;;;;;;;;;;;;109256;1252;59101;-80
2024/04/13 06:56:10;;;;;;;;;;;;;;;;;;109315;1251;59029;-79
2024/04/13 06:58:36;;;;;;;;;;;;;;;;;;109499;1255;59522;-81
2024/04/13 07:01:02;;;;;;;;;;;;;;;;;;109473;1251;59121;-81
2024/04/13 07:03:29;;;;;;;;;;;;;;;;;;109527;1250;59117;-80
2024/04/13 07:05:55;;;;;;;;;;;;;;;;;;109496;1250;59103;-80
2024/04/13 07:08:21;;;;;;;;;;;;;;;;;;109484;1251;59506;-80
2024/04/13 07:10:47;;;;;;;;;;;;;;;;;;109495;1251;59047;-81
2024/04/13 07:13:13;;;;;;;;;;;;;;;;;;109302;1253;59623;-80
2024/04/13 07:15:40;;;;;;;;;;;;;;;;;;109267;1252;59614;-81
2024/04/13 07:18:08;;;;;;;;;;;;;;;;;;109337;1252;59337;-81
2024/04/13 07:20:35;;;;;;;;;;;;;;;;;;109301;1254;59054;-80
2024/04/13 07:23:01;;;;;;;;;;;;;;;;;;109320;1254;60938;-80
2024/04/13 07:25:27;;;;;;;;;;;;;;;;;;109323;1253;59673;-82
2024/04/13 07:27:54;;;;;;;;;;;;;;;;;;109293;1254;59735;-81
2024/04/13 07:30:20;;;;;;;;;;;;;;;;;;109476;1257;59258;-81
2024/04/13 07:32:46;;;;;;;;;;;;;;;;;;109489;1252;58835;-80
2024/04/13 07:35:13;;;;;;;;;;;;;;;;;;109379;1253;59041;-80
2024/04/13 07:37:39;;;;;;;;;;;;;;;;;;109384;1251;59754;-81
2024/04/13 07:40:05;;;;;;;;;;;;;;;;;;109493;1253;58961;-80
2024/04/13 07:42:31;;;;;;;;;;;;;;;;;;109475;1253;59142;-81
2024/04/13 07:44:57;;;;;;;;;;;;;;;;;;109443;1256;58870;-81
2024/04/13 07:47:24;;;;;;;;;;;;;;;;;;109466;1253;59178;-80
2024/04/13 07:49:51;;;;;;;;;;;;;;;;;;109336;1253;59736;-82
2024/04/13 07:52:18;;;;;;;;;;;;;;;;;;109299;1254;59708;-80
2024/04/13 07:54:44;;;;;;;;;;;;;;;;;;109265;1253;59767;-80
2024/04/13 07:57:10;;;;;;;;;;;;;;;;;;109301;1251;59046;-82
2024/04/13 07:59:36;;;;;;;;;;;;;;;;;;109401;1254;59035;-79
2024/04/13 08:02:02;;;;;;;;;;;;;;;;;;109478;1251;59064;-80
2024/04/13 08:04:29;;;;;;;;;;;;;;;;;;109493;1251;59444;-81
2024/04/13 08:06:55;;;;;;;;;;;;;;;;;;109346;1251;60729;-81
2024/04/13 08:09:21;;;;;;;;;;;;;;;;;;109343;1254;59096;-80
2024/04/13 08:11:47;;;;;;;;;;;;;;;;;;109526;1251;59119;-81
2024/04/13 08:14:13;;;;;;;;;;;;;;;;;;109371;1250;58966;-80
2024/04/13 08:16:40;;;;;;;;;;;;;;;;;;109334;1251;59357;-82
2024/04/13 08:19:06;;;;;;;;;;;;;;;;;;109338;1251;59276;-80
2024/04/13 08:21:32;;;;;;;;;;;;;;;;;;109370;1251;59122;-80
2024/04/13 08:23:58;;;;;;;;;;;;;;;;;;109384;1254;59659;-82
2024/04/13 08:26:24;;;;;;;;;;;;;;;;;;109334;1251;59074;-80
2024/04/13 08:28:51;;;;;;;;;;;;;;;;;;109315;1251;59273;-82
2024/04/13 08:31:17;;;;;;;;;;;;;;;;;;109472;1251;58989;-82
2024/04/13 08:33:43;;;;;;;;;;;;;;;;;;109386;1251;59255;-80
2024/04/13 08:36:09;;;;;;;;;;;;;;;;;;109371;1251;59421;-82
2024/04/13 08:38:36;;;;;;;;;;;;;;;;;;109633;1251;58930;-82
2024/04/13 08:41:03;;;;;;;;;;;;;;;;;;109588;1251;59070;-81
2024/04/13 08:43:29;;;;;;;;;;;;;;;;;;109410;1251;59734;-81
2024/04/13 08:45:55;;;;;;;;;;;;;;;;;;109456;1251;59258;-81
2024/04/13 08:48:22;;;;;;;;;;;;;;;;;;109481;1251;59574;-82
2024/04/13 08:50:49;;;;;;;;;;;;;;;;;;109402;1251;58995;-82
2024/04/13 08:53:15;;;;;;;;;;;;;;;;;;109395;1251;59081;-82
2024/04/13 08:55:41;;;;;;;;;;;;;;;;;;109341;1253;59635;-81
2024/04/13 08:58:08;;;;;;;;;;;;;;;;;;109293;1253;59632;-81
2024/04/13 09:00:34;;;;;;;;;;;;;;;;;;109388;1251;58968;-81
2024/04/13 09:03:00;;;;;;;;;;;;;;;;;;109370;1251;59138;-82
2024/04/13 09:05:26;;;;;;;;;;;;;;;;;;109322;1251;59034;-81
2024/04/13 09:07:52;;;;;;;;;;;;;;;;;;109455;1251;59270;-81
2024/04/13 09:10:19;;;;;;;;;;;;;;;;;;109711;1251;59164;-82
2024/04/13 09:12:45;;;;;;;;;;;;;;;;;;109557;1251;59653;-81
2024/04/13 09:15:12;;;;;;;;;;;;;;;;;;109643;1250;58823;-82
2024/04/13 09:17:39;;;;;;;;;;;;;;;;;;109455;1251;59005;-81
2024/04/13 09:20:09;;;;;;;;;;;;;;;;;;109365;1251;59336;-80
2024/04/13 09:22:35;;;;;;;;;;;;;;;;;;109435;1251;59037;-82
2024/04/13 09:25:01;;;;;;;;;;;;;;;;;;109389;1251;59832;-82
2024/04/13 09:27:30;;;;;;;;;;;;;;;;;;109478;1251;58910;-81
2024/04/13 09:29:56;;;;;;;;;;;;;;;;;;109528;1251;58855;-81
2024/04/13 09:32:23;;;;;;;;;;;;;;;;;;109618;1251;59262;-82
2024/04/13 09:34:49;;;;;;;;;;;;;;;;;;109567;1251;60128;-81
2024/04/13 09:37:15;;;;;;;;;;;;;;;;;;109529;1251;58873;-82
2024/04/13 09:39:44;;;;;;;;;;;;;;;;;;109598;1251;58893;-81
2024/04/13 09:42:10;;;;;;;;;;;;;;;;;;109509;1251;58930;-81
2024/04/13 09:44:36;;;;;;;;;;;;;;;;;;109549;1251;59099;-82
2024/04/13 09:47:02;;;;;;;;;;;;;;;;;;109540;1250;59434;-80
2024/04/13 09:49:29;;;;;;;;;;;;;;;;;;109585;1251;59086;-81
2024/04/13 09:51:55;;;;;;;;;;;;;;;;;;109540;1251;59142;-80
2024/04/13 09:54:26;;;;;;;;;;;;;;;;;;109482;1253;58926;-80
2024/04/13 09:56:52;;;;;;;;;;;;;;;;;;109644;1251;62026;-82
2024/04/13 09:59:21;;;;;;;;;;;;;;;;;;109550;1251;59175;-81
2024/04/13 10:01:47;;;;;;;;;;;;;;;;;;109513;1251;60671;-82
2024/04/13 10:04:13;;;;;;;;;;;;;;;;;;109421;1251;58930;-80
2024/04/13 10:06:39;;;;;;;;;;;;;;;;;;109456;1251;59667;-78
2024/04/13 10:09:05;;;;;;;;;;;;;;;;;;109481;1250;59542;-80
2024/04/13 10:11:32;;;;;;;;;;;;;;;;;;109434;1251;59362;-79
2024/04/13 10:13:58;;;;;;;;;;;;;;;;;;109405;1251;60206;-78
2024/04/13 10:16:24;;;;;;;;;;;;;;;;;;109457;1250;59428;-80
2024/04/13 10:18:50;;;;;;;;;;;;;;;;;;109406;1251;59675;-81
2024/04/13 10:21:16;;;;;;;;;;;;;;;;;;109359;1250;59672;-80
2024/04/13 10:23:42;;;;;;;;;;;;;;;;;;109317;1251;59674;-81
2024/04/13 10:26:09;;;;;;;;;;;;;;;;;;109350;1251;59572;-80
2024/04/13 10:28:35;;;;;;;;;;;;;;;;;;109393;1251;58982;-79
2024/04/13 10:31:03;;;;;;;;;;;;;;;;;;109422;1250;59605;-79
2024/04/13 10:33:29;;;;;;;;;;;;;;;;;;109346;1251;59242;-80
2024/04/13 10:35:55;;;;;;;;;;;;;;;;;;109484;1250;59736;-80
2024/04/13 10:38:21;;;;;;;;;;;;;;;;;;109438;1250;59467;-79
2024/04/13 10:40:47;;;;;;;;;;;;;;;;;;109331;1250;58973;-81
2024/04/13 10:43:14;;;;;;;;;;;;;;;;;;109363;1251;59674;-80
2024/04/13 10:45:40;;;;;;;;;;;;;;;;;;109346;1251;58941;-80
2024/04/13 10:48:06;;;;;;;;;;;;;;;;;;109383;1250;59828;-79
2024/04/13 10:50:33;;;;;;;;;;;;;;;;;;109419;1251;59084;-80
2024/04/13 10:52:59;;;;;;;;;;;;;;;;;;109369;1251;59587;-79
2024/04/13 10:55:25;;;;;;;;;;;;;;;;;;109387;1252;59395;-80
2024/04/13 10:57:52;;;;;;;;;;;;;;;;;;109507;1250;58978;-79
2024/04/13 11:00:18;;;;;;;;;;;;;;;;;;109500;1251;59680;-80
2024/04/13 11:02:46;;;;;;;;;;;;;;;;;;109491;1250;59555;-81
2024/04/13 11:05:12;;;;;;;;;;;;;;;;;;109388;1251;59437;-81
2024/04/13 11:07:39;;;;;;;;;;;;;;;;;;109504;1250;59523;-79
2024/04/13 11:10:05;;;;;;;;;;;;;;;;;;109509;1250;59070;-80
2024/04/13 11:12:32;;;;;;;;;;;;;;;;;;109466;1250;59595;-79
2024/04/13 11:14:58;;;;;;;;;;;;;;;;;;109504;1251;59457;-81
2024/04/13 11:17:24;;;;;;;;;;;;;;;;;;109460;1250;59394;-79
2024/04/13 11:19:50;;;;;;;;;;;;;;;;;;109495;1250;59067;-81
2024/04/13 11:22:17;;;;;;;;;;;;;;;;;;109497;1250;58979;-80
2024/04/13 11:24:43;;;;;;;;;;;;;;;;;;109323;1252;61550;-79
2024/04/13 11:27:10;;;;;;;;;;;;;;;;;;109335;1252;60137;-80
2024/04/13 11:29:36;;;;;;;;;;;;;;;;;;109256;1252;59772;-81
2024/04/13 11:32:03;;;;;;;;;;;;;;;;;;109327;1251;59986;-81
2024/04/13 11:34:29;;;;;;;;;;;;;;;;;;109356;1253;60566;-81
2024/04/13 11:36:55;;;;;;;;;;;;;;;;;;109314;1252;59924;-79
2024/04/13 11:39:21;;;;;;;;;;;;;;;;;;109318;1252;60199;-80
2024/04/13 11:41:47;;;;;;;;;;;;;;;;;;109346;1251;59838;-80
2024/04/13 11:44:13;;;;;;;;;;;;;;;;;;109351;1252;60235;-81
2024/04/13 11:46:40;;;;;;;;;;;;;;;;;;109370;1251;60217;-80
2024/04/13 11:49:06;;;;;;;;;;;;;;;;;;109320;1252;59884;-81
2024/04/13 11:51:32;;;;;;;;;;;;;;;;;;109316;1251;59891;-82
2024/04/13 11:53:59;;;;;;;;;;;;;;;;;;109366;1252;61149;-79
2024/04/13 11:56:25;;;;;;;;;;;;;;;;;;109409;1251;60332;-81
2024/04/13 11:58:53;;;;;;;;;;;;;;;;;;109483;1251;59823;-80
2024/04/13 12:01:21;;;;;;;;;;;;;;;;;;109409;1250;59779;-79
2024/04/13 12:03:47;;;;;;;;;;;;;;;;;;109432;1251;60084;-79
2024/04/13 12:06:13;;;;;;;;;;;;;;;;;;109320;1252;60323;-80
2024/04/13 12:08:39;;;;;;;;;;;;;;;;;;109510;1250;60071;-81
2024/04/13 12:11:06;;;;;;;;;;;;;;;;;;109298;1251;60101;-79
2024/04/13 12:13:32;;;;;;;;;;;;;;;;;;109342;1253;59834;-81
2024/04/13 12:15:58;;;;;;;;;;;;;;;;;;109374;1251;60105;-80
2024/04/13 12:18:25;;;;;;;;;;;;;;;;;;109332;1251;60344;-80
2024/04/13 12:20:51;;;;;;;;;;;;;;;;;;109388;1250;60233;-79
2024/04/13 12:23:17;;;;;;;;;;;;;;;;;;109290;1251;60071;-81
2024/04/13 12:25:43;;;;;;;;;;;;;;;;;;109345;1251;59801;-81
2024/04/13 12:28:09;;;;;;;;;;;;;;;;;;109390;1251;59749;-82
2024/04/13 12:30:36;;;;;;;;;;;;;;;;;;109330;1252;60114;-79
2024/04/13 12:33:02;;;;;;;;;;;;;;;;;;109340;1251;60484;-81
2024/04/13 12:35:28;;;;;;;;;;;;;;;;;;109323;1251;59794;-81
2024/04/13 12:37:55;;;;;;;;;;;;;;;;;;109362;1251;60169;-81
2024/04/13 12:40:21;;;;;;;;;;;;;;;;;;109363;1252;60292;-81
2024/04/13 12:42:47;;;;;;;;;;;;;;;;;;109374;1251;60415;-80
2024/04/13 12:45:13;;;;;;;;;;;;;;;;;;109355;1251;59830;-81
2024/04/13 12:47:40;;;;;;;;;;;;;;;;;;109356;1252;60445;-80
2024/04/13 12:50:06;;;;;;;;;;;;;;;;;;109404;1251;60288;-79
2024/04/13 12:52:33;;;;;;;;;;;;;;;;;;109374;1251;60107;-81
2024/04/13 12:54:59;;;;;;;;;;;;;;;;;;109258;1252;60338;-80
2024/04/13 12:57:26;;;;;;;;;;;;;;;;;;109466;1250;59996;-81
2024/04/13 12:59:52;;;;;;;;;;;;;;;;;;109478;1251;60371;-80
2024/04/13 13:02:19;;;;;;;;;;;;;;;;;;109518;1250;59869;-81
2024/04/13 13:04:45;;;;;;;;;;;;;;;;;;109488;1251;59834;-79
2024/04/13 13:07:11;;;;;;;;;;;;;;;;;;109481;1250;59879;-80
2024/04/13 13:09:37;;;;;;;;;;;;;;;;;;109489;1250;60105;-80
2024/04/13 13:12:04;;;;;;;;;;;;;;;;;;109504;1250;59855;-82
2024/04/13 13:14:30;;;;;;;;;;;;;;;;;;109432;1251;60509;-81
2024/04/13 13:16:57;;;;;;;;;;;;;;;;;;109412;1251;59814;-80
2024/04/13 13:19:23;;;;;;;;;;;;;;;;;;109509;1250;60428;-81
2024/04/13 13:21:49;;;;;;;;;;;;;;;;;;109553;1251;59746;-80
2024/04/13 13:24:15;;;;;;;;;;;;;;;;;;109578;1251;59745;-80
2024/04/13 13:26:42;;;;;;;;;;;;;;;;;;109398;1252;60214;-81
2024/04/13 13:29:08;;;;;;;;;;;;;;;;;;109372;1252;60056;-80
2024/04/13 13:31:34;;;;;;;;;;;;;;;;;;109361;1251;60470;-80
2024/04/13 13:34:03;;;;;;;;;;;;;;;;;;109362;1252;60537;-81
2024/04/13 13:36:29;;;;;;;;;;;;;;;;;;109359;1251;60413;-80
2024/04/13 13:38:55;;;;;;;;;;;;;;;;;;109345;1252;59827;-81
2024/04/13 13:41:21;;;;;;;;;;;;;;;;;;109332;1252;59950;-81
2024/04/13 13:43:48;;;;;;;;;;;;;;;;;;109273;1253;60481;-80
2024/04/13 13:46:14;;;;;;;;;;;;;;;;;;109290;1252;60121;-81
2024/04/13 13:48:41;;;;;;;;;;;;;;;;;;109354;1251;60423;-81
2024/04/13 13:51:07;;;;;;;;;;;;;;;;;;109357;1252;60395;-80
2024/04/13 13:53:33;;;;;;;;;;;;;;;;;;109345;1252;59833;-80
2024/04/13 13:56:00;;;;;;;;;;;;;;;;;;109448;1250;59908;-81
2024/04/13 13:58:26;;;;;;;;;;;;;;;;;;109459;1250;60470;-81
2024/04/13 14:00:54;;;;;;;;;;;;;;;;;;109557;1250;59879;-81
2024/04/13 14:03:20;;;;;;;;;;;;;;;;;;109581;1250;59782;-81
2024/04/13 14:05:46;;;;;;;;;;;;;;;;;;109475;1250;59825;-81
2024/04/13 14:08:13;;;;;;;;;;;;;;;;;;109485;1250;60225;-80
2024/04/13 14:10:39;;;;;;;;;;;;;;;;;;109487;1250;60299;-81
2024/04/13 14:13:05;;;;;;;;;;;;;;;;;;109432;1250;60080;-81
2024/04/13 14:15:31;;;;;;;;;;;;;;;;;;109320;1252;60197;-80
2024/04/13 14:17:57;;;;;;;;;;;;;;;;;;109349;1252;60165;-81
2024/04/13 14:20:24;;;;;;;;;;;;;;;;;;109355;1251;61811;-81
2024/04/13 14:22:50;;;;;;;;;;;;;;;;;;109337;1252;59827;-80
2024/04/13 14:25:16;;;;;;;;;;;;;;;;;;109451;1252;60160;-80
2024/04/13 14:27:42;;;;;;;;;;;;;;;;;;109495;1251;59954;-80
2024/04/13 14:30:09;;;;;;;;;;;;;;;;;;109397;1252;60812;-81
2024/04/13 14:32:36;;;;;;;;;;;;;;;;;;109384;1252;60179;-80
2024/04/13 14:35:02;;;;;;;;;;;;;;;;;;109404;1253;59899;-81
2024/04/13 14:37:28;;;;;;;;;;;;;;;;;;109370;1251;59828;-80
2024/04/13 14:39:55;;;;;;;;;;;;;;;;;;109340;1252;60406;-81
2024/04/13 14:42:21;;;;;;;;;;;;;;;;;;109350;1251;60346;-80
2024/04/13 14:44:48;;;;;;;;;;;;;;;;;;109366;1252;60425;-80
2024/04/13 14:47:14;;;;;;;;;;;;;;;;;;109268;1251;59882;-80
2024/04/13 14:49:40;;;;;;;;;;;;;;;;;;109332;1251;60511;-81
2024/04/13 14:52:06;;;;;;;;;;;;;;;;;;109342;1252;60040;-81
2024/04/13 14:54:32;;;;;;;;;;;;;;;;;;109369;1252;59878;-81
2024/04/13 14:56:59;;;;;;;;;;;;;;;;;;109418;1250;60404;-80
2024/04/13 14:59:25;;;;;;;;;;;;;;;;;;109455;1250;60411;-81
2024/04/13 15:01:51;;;;;;;;;;;;;;;;;;109486;1250;60119;-81
2024/04/13 15:04:17;;;;;;;;;;;;;;;;;;109483;1250;60431;-81
2024/04/13 15:06:44;;;;;;;;;;;;;;;;;;109455;1250;59896;-81
2024/04/13 15:09:10;;;;;;;;;;;;;;;;;;109481;1251;60316;-81
2024/04/13 15:11:36;;;;;;;;;;;;;;;;;;109515;1250;60409;-81
2024/04/13 15:14:02;;;;;;;;;;;;;;;;;;109513;1250;60472;-81
2024/04/13 15:16:29;;;;;;;;;;;;;;;;;;109394;1251;59847;-81
2024/04/13 15:18:55;;;;;;;;;;;;;;;;;;109471;1250;60510;-81
2024/04/13 15:21:21;;;;;;;;;;;;;;;;;;109395;1251;60159;-81
2024/04/13 15:23:50;;;;;;;;;;;;;;;;;;109424;1251;59949;-81
2024/04/13 15:26:16;;;;;;;;;;;;;;;;;;109386;1251;62649;-81
2024/04/13 15:28:42;;;;;;;;;;;;;;;;;;109365;1251;59921;-80
2024/04/13 15:31:08;;;;;;;;;;;;;;;;;;109349;1252;60298;-80
2024/04/13 15:33:34;;;;;;;;;;;;;;;;;;109315;1252;59790;-81
2024/04/13 15:36:01;;;;;;;;;;;;;;;;;;109280;1251;59835;-81
2024/04/13 15:38:27;;;;;;;;;;;;;;;;;;109349;1252;59804;-81
2024/04/13 15:40:55;;;;;;;;;;;;;;;;;;109383;1252;60089;-80
2024/04/13 15:43:21;;;;;;;;;;;;;;;;;;109346;1252;60414;-80
2024/04/13 15:45:51;;;;;;;;;;;;;;;;;;109286;1252;59899;-80
2024/04/13 15:48:18;;;;;;;;;;;;;;;;;;109363;1252;60338;-81
2024/04/13 15:50:44;;;;;;;;;;;;;;;;;;109363;1252;61489;-81
2024/04/13 15:53:10;;;;;;;;;;;;;;;;;;109362;1252;60192;-81
2024/04/13 15:55:36;;;;;;;;;;;;;;;;;;109356;1251;60175;-81
2024/04/13 15:58:02;;;;;;;;;;;;;;;;;;109450;1250;60458;-81
2024/04/13 16:00:29;;;;;;;;;;;;;;;;;;109494;1250;60234;-81
2024/04/13 16:02:55;;;;;;;;;;;;;;;;;;109466;1250;60426;-81
2024/04/13 16:05:21;;;;;;;;;;;;;;;;;;109527;1250;60247;-81
2024/04/13 16:07:47;;;;;;;;;;;;;;;;;;109437;1251;60348;-81
2024/04/13 16:10:14;;;;;;;;;;;;;;;;;;109440;1250;60301;-81
2024/04/13 16:12:40;;;;;;;;;;;;;;;;;;109444;1250;59991;-81
2024/04/13 16:15:08;;;;;;;;;;;;;;;;;;109543;1250;60488;-81
2024/04/13 16:17:35;;;;;;;;;;;;;;;;;;109509;1250;60445;-81
2024/04/13 16:20:01;;;;;;;;;;;;;;;;;;109514;1250;59882;-80
2024/04/13 16:22:27;;;;;;;;;;;;;;;;;;109471;1250;59874;-80